createdAt,value
2022-09-23T00:01:17.027Z,100787.53
2022-09-23T00:03:46.271Z,100793.81
2022-09-23T00:06:16.440Z,100799.25
2022-09-23T00:08:44.175Z,100795.84
2022-09-23T00:11:17.055Z,100792.38
2022-09-23T00:13:45.491Z,100785.41
2022-09-23T00:16:23.503Z,100781.94
2022-09-23T00:18:50.945Z,100777.59
2022-09-23T00:21:20.386Z,100775.03
2022-09-23T00:23:47.606Z,100779.50
2022-09-23T00:26:17.525Z,100775.09
2022-09-23T00:28:45.186Z,100776.91
2022-09-23T00:31:15.497Z,100769.94
2022-09-23T00:33:42.882Z,100770.09
2022-09-23T00:36:12.713Z,100775.50
2022-09-23T00:38:39.677Z,100766.91
2022-09-23T00:41:06.721Z,100772.28
2022-09-23T00:43:58.467Z,100778.53
2022-09-23T00:46:43.811Z,100771.56
2022-09-23T00:49:29.279Z,100783.03
2022-09-23T00:52:02.557Z,100783.00
2022-09-23T00:54:31.167Z,100777.66
2022-09-23T00:57:00.135Z,100789.94
2022-09-23T00:59:29.207Z,100789.91
2022-09-23T01:01:58.119Z,100785.56
2022-09-23T01:04:28.184Z,100782.88
2022-09-23T01:06:55.417Z,100782.81
2022-09-23T01:09:23.237Z,100788.00
2022-09-23T01:12:06.253Z,100795.91
2022-09-23T01:14:55.216Z,100787.94
2022-09-23T01:17:49.037Z,100785.16
2022-09-23T01:20:39.426Z,100785.09
2022-09-23T01:23:09.397Z,100782.38
2022-09-23T01:26:01.755Z,100783.19
2022-09-23T01:28:53.028Z,100788.47
2022-09-23T01:31:45.068Z,100788.53
2022-09-23T01:34:16.028Z,100791.09
2022-09-23T01:36:49.698Z,100787.59
2022-09-23T01:39:32.752Z,100799.00
2022-09-23T01:42:17.426Z,100801.66
2022-09-23T01:44:57.105Z,100793.72
2022-09-23T01:47:30.713Z,100792.75
2022-09-23T01:49:59.841Z,100795.41
2022-09-23T01:52:30.664Z,100794.50
2022-09-23T01:55:04.550Z,100798.06
2022-09-23T01:57:37.748Z,100797.22
2022-09-23T02:00:25.598Z,100793.75
2022-09-23T02:03:01.629Z,100802.59
2022-09-23T02:05:36.997Z,100799.13
2022-09-23T02:08:33.854Z,100801.84
2022-09-23T02:11:08.233Z,100799.28
2022-09-23T02:13:48.929Z,100802.84
2022-09-23T02:16:24.790Z,100807.28
2022-09-23T02:19:27.218Z,100809.03
2022-09-23T02:22:03.925Z,100809.78
2022-09-23T02:24:34.771Z,100814.16
2022-09-23T02:27:13.906Z,100808.81
2022-09-23T02:30:06.170Z,100808.75
2022-09-23T02:32:42.203Z,100817.47
2022-09-23T02:35:17.054Z,100813.91
2022-09-23T02:38:01.056Z,100808.53
2022-09-23T02:40:31.242Z,100818.13
2022-09-23T02:43:23.090Z,100812.72
2022-09-23T02:45:50.582Z,100823.28
2022-09-23T02:48:22.888Z,100817.03
2022-09-23T02:50:51.191Z,100814.34
2022-09-23T02:53:18.186Z,100820.41
2022-09-23T02:55:46.398Z,100823.88
2022-09-23T02:58:14.398Z,100816.78
2022-09-23T03:01:00.360Z,100812.31
2022-09-23T03:03:40.905Z,100820.16
2022-09-23T03:06:32.293Z,100817.47
2022-09-23T03:09:09.264Z,100814.72
2022-09-23T03:11:40.651Z,100820.03
2022-09-23T03:14:36.349Z,100820.94
2022-09-23T03:17:30.592Z,100818.28
2022-09-23T03:20:06.629Z,100821.84
2022-09-23T03:22:39.487Z,100826.28
2022-09-23T03:25:12.380Z,100827.09
2022-09-23T03:27:42.533Z,100826.22
2022-09-23T03:30:10.966Z,100821.81
2022-09-23T03:32:42.443Z,100822.66
2022-09-23T03:35:10.791Z,100823.53
2022-09-23T03:37:40.928Z,100817.31
2022-09-23T03:40:19.507Z,100832.22
2022-09-23T03:42:49.477Z,100819.00
2022-09-23T03:45:22.491Z,100828.63
2022-09-23T03:47:49.820Z,100820.69
2022-09-23T03:50:17.450Z,100827.69
2022-09-23T03:52:44.848Z,100835.56
2022-09-23T03:55:12.185Z,100832.03
2022-09-23T03:57:39.815Z,100832.00
2022-09-23T04:00:08.098Z,100832.81
2022-09-23T04:05:29.752Z,100831.88
2022-09-23T04:07:57.561Z,100835.28
2022-09-23T04:10:24.682Z,100836.13
2022-09-23T04:12:51.639Z,100835.16
2022-09-23T04:15:19.589Z,100834.13
2022-09-23T04:17:47.351Z,100829.66
2022-09-23T04:20:14.677Z,100830.41
2022-09-23T04:22:42.116Z,100831.13
2022-09-23T04:25:09.598Z,100834.53
2022-09-23T04:27:38.954Z,100837.06
2022-09-23T04:30:07.691Z,100841.31
2022-09-23T04:32:35.654Z,100838.53
2022-09-23T04:35:02.918Z,100841.94
2022-09-23T04:37:30.534Z,100840.88
2022-09-23T04:39:57.698Z,100839.78
2022-09-23T04:42:24.728Z,100844.03
2022-09-23T04:44:52.077Z,100844.06
2022-09-23T04:47:20.484Z,100840.47
2022-09-23T04:49:49.218Z,100835.88
2022-09-23T04:52:18.184Z,100842.78
2022-09-23T04:54:46.045Z,100834.69
2022-09-23T04:57:14.415Z,100842.44
2022-09-23T04:59:41.907Z,100843.28
2022-09-23T05:02:11.869Z,100849.31
2022-09-23T05:04:39.599Z,100845.59
2022-09-23T05:07:07.480Z,100848.03
2022-09-23T05:09:43.354Z,100847.78
2022-09-23T05:12:14.605Z,100847.59
2022-09-23T05:14:41.726Z,100849.09
2022-09-23T05:17:08.733Z,100845.31
2022-09-23T05:19:38.518Z,100846.81
2022-09-23T05:22:06.519Z,100840.28
2022-09-23T05:24:33.620Z,100843.53
2022-09-23T05:27:11.034Z,100841.47
2022-09-23T05:29:57.909Z,100848.47
2022-09-23T05:32:40.421Z,100846.63
2022-09-23T05:35:08.109Z,100856.16
2022-09-23T05:37:38.008Z,100852.50
2022-09-23T05:40:08.476Z,100847.78
2022-09-23T05:42:43.121Z,100851.03
2022-09-23T05:45:10.523Z,100850.84
2022-09-23T05:47:38.386Z,100841.97
2022-09-23T05:50:16.759Z,100836.53
2022-09-23T05:52:51.312Z,100850.75
2022-09-23T05:55:18.476Z,100837.47
2022-09-23T05:57:48.751Z,100845.09
2022-09-23T06:00:20.844Z,100841.75
2022-09-23T06:02:49.496Z,100847.22
2022-09-23T06:05:18.081Z,100848.34
2022-09-23T06:07:48.204Z,100852.56
2022-09-23T06:10:16.487Z,100849.72
2022-09-23T06:12:45.136Z,100856.66
2022-09-23T06:15:12.488Z,100867.28
2022-09-23T06:17:40.626Z,100863.22
2022-09-23T06:20:24.963Z,100868.00
2022-09-23T06:22:55.339Z,100868.44
2022-09-23T06:25:23.141Z,100872.19
2022-09-23T06:27:57.195Z,100872.28
2022-09-23T06:30:25.249Z,100868.06
2022-09-23T06:32:54.008Z,100871.59
2022-09-23T06:35:27.832Z,100868.63
2022-09-23T06:37:55.543Z,100864.88
2022-09-23T06:40:23.106Z,100876.19
2022-09-23T06:42:58.578Z,100872.28
2022-09-23T06:45:27.235Z,100883.25
2022-09-23T06:47:59.119Z,100874.75
2022-09-23T06:50:27.905Z,100875.84
2022-09-23T06:52:56.415Z,100870.06
2022-09-23T06:55:24.783Z,100863.63
2022-09-23T06:57:52.070Z,100865.19
2022-09-23T07:00:20.176Z,100865.97
2022-09-23T07:02:47.628Z,100864.13
2022-09-23T07:05:17.431Z,100872.97
2022-09-23T07:07:45.133Z,100873.66
2022-09-23T07:10:12.454Z,100875.06
2022-09-23T07:12:39.970Z,100881.81
2022-09-23T07:15:08.552Z,100873.56
2022-09-23T07:17:35.789Z,100878.84
2022-09-23T07:20:04.232Z,100870.75
2022-09-23T07:22:33.641Z,100884.88
2022-09-23T07:27:50.338Z,100878.34
2022-09-23T07:30:24.709Z,100872.34
2022-09-23T07:32:57.434Z,100874.19
2022-09-23T07:35:26.415Z,100869.94
2022-09-23T07:37:54.821Z,100873.13
2022-09-23T07:40:25.103Z,100869.69
2022-09-23T07:42:52.217Z,100866.63
2022-09-23T07:45:20.068Z,100869.34
2022-09-23T07:47:47.111Z,100869.41
2022-09-23T07:50:14.345Z,100868.13
2022-09-23T07:52:41.682Z,100862.00
2022-09-23T07:55:12.021Z,100865.03
2022-09-23T07:57:39.257Z,100856.97
2022-09-23T08:00:22.997Z,100853.28
2022-09-23T08:02:53.253Z,100859.13
2022-09-23T08:05:22.699Z,100860.28
2022-09-23T08:07:49.992Z,100853.66
2022-09-23T08:10:20.921Z,100846.50
2022-09-23T08:12:49.071Z,100838.75
2022-09-23T08:15:17.673Z,100842.53
2022-09-23T08:17:45.071Z,100836.44
2022-09-23T08:20:34.867Z,100840.59
2022-09-23T08:23:02.478Z,100847.88
2022-09-23T08:25:32.306Z,100823.03
2022-09-23T08:28:01.364Z,100820.50
2022-09-23T08:30:28.686Z,100829.09
2022-09-23T08:32:55.767Z,100829.75
2022-09-23T08:35:25.497Z,100827.06
2022-09-23T08:37:52.795Z,100838.25
2022-09-23T08:40:20.062Z,100833.63
2022-09-23T08:42:50.316Z,100821.22
2022-09-23T08:45:27.000Z,100815.81
2022-09-23T08:48:03.631Z,100816.75
2022-09-23T08:50:42.552Z,100818.16
2022-09-23T08:53:26.444Z,100810.50
2022-09-23T08:55:57.981Z,100814.03
2022-09-23T08:58:43.384Z,100817.97
2022-09-23T09:01:23.154Z,100821.94
2022-09-23T09:03:56.617Z,100815.94
2022-09-23T09:06:51.771Z,100811.34
2022-09-23T09:09:23.789Z,100818.84
2022-09-23T09:11:58.204Z,100811.69
2022-09-23T09:14:50.084Z,100811.97
2022-09-23T09:17:49.095Z,100821.69
2022-09-23T09:21:07.412Z,100813.69
2022-09-23T09:24:00.438Z,100823.84
2022-09-23T09:26:32.232Z,100819.28
2022-09-23T09:29:30.808Z,100818.25
2022-09-23T09:31:54.617Z,100824.13
2022-09-23T09:34:33.896Z,100815.38
2022-09-23T09:37:35.261Z,100826.78
2022-09-23T09:40:21.416Z,100823.03
2022-09-23T09:42:55.692Z,100833.84
2022-09-23T09:45:37.967Z,100830.09
2022-09-23T09:48:21.782Z,100832.91
2022-09-23T09:50:53.400Z,100836.78
2022-09-23T09:53:32.251Z,100835.94
2022-09-23T09:56:05.022Z,100835.50
2022-09-23T09:58:44.221Z,100823.84
2022-09-23T10:01:23.994Z,100833.97
2022-09-23T10:03:56.989Z,100833.50
2022-09-23T10:06:36.831Z,100844.84
2022-09-23T10:09:20.345Z,100847.53
2022-09-23T10:12:17.115Z,100842.63
2022-09-23T10:14:51.526Z,100843.25
2022-09-23T10:23:18.029Z,100837.22
2022-09-23T10:28:52.855Z,100842.34
2022-09-23T10:31:29.428Z,100839.13
2022-09-23T10:34:23.289Z,100837.19
2022-09-23T10:37:12.158Z,100834.91
2022-09-23T10:39:58.607Z,100836.81
2022-09-23T10:43:08.034Z,100826.19
2022-09-23T10:45:58.584Z,100830.72
2022-09-23T10:49:02.590Z,100830.25
2022-09-23T10:51:41.987Z,100824.88
2022-09-23T10:54:18.615Z,100825.13
2022-09-23T10:57:02.004Z,100824.88
2022-09-23T10:59:41.299Z,100822.31
2022-09-23T11:02:54.194Z,100812.47
2022-09-23T11:05:21.738Z,100809.34
2022-09-23T11:07:54.843Z,100812.78
2022-09-23T11:10:49.882Z,100810.81
2022-09-23T11:13:43.307Z,100817.66
2022-09-23T11:16:41.302Z,100802.91
2022-09-23T11:19:45.597Z,100799.50
2022-09-23T11:22:32.470Z,100800.03
2022-09-23T11:25:08.540Z,100799.25
2022-09-23T11:27:51.296Z,100787.84
2022-09-23T11:30:20.260Z,100787.16
2022-09-23T11:33:06.415Z,100791.06
2022-09-23T11:35:41.119Z,100782.16
2022-09-23T11:38:13.304Z,100790.97
2022-09-23T11:40:45.605Z,100784.81
2022-09-23T11:43:32.195Z,100776.28
2022-09-23T11:46:32.092Z,100787.91
2022-09-23T11:49:12.202Z,100777.91
2022-09-23T11:52:19.810Z,100773.44
2022-09-23T11:55:20.956Z,100774.56
2022-09-23T11:58:00.144Z,100769.13
2022-09-23T12:00:36.331Z,100768.34
2022-09-23T12:03:24.892Z,100772.28
2022-09-23T12:06:14.298Z,100766.44
2022-09-23T12:08:42.841Z,100767.06
2022-09-23T12:11:23.554Z,100768.06
2022-09-23T12:14:09.849Z,100763.06
2022-09-23T12:17:05.269Z,100759.88
2022-09-23T12:19:57.613Z,100754.81
2022-09-23T12:22:43.253Z,100755.66
2022-09-23T12:25:46.663Z,100750.72
2022-09-23T12:28:19.657Z,100749.63
2022-09-23T12:30:48.761Z,100745.53
2022-09-23T12:33:27.786Z,100745.38
2022-09-23T12:36:05.013Z,100745.53
2022-09-23T12:38:37.891Z,100740.97
2022-09-23T12:41:36.672Z,100745.66
2022-09-23T12:44:27.110Z,100744.19
2022-09-23T12:47:23.715Z,100731.59
2022-09-23T12:49:54.891Z,100733.28
2022-09-23T12:52:41.994Z,100730.34
2022-09-23T12:55:22.253Z,100733.59
2022-09-23T12:57:49.446Z,100731.38
2022-09-23T13:00:30.975Z,100732.81
2022-09-23T13:06:27.179Z,100726.22
2022-09-23T13:08:54.789Z,100728.81
2022-09-23T13:11:26.792Z,100729.75
2022-09-23T13:13:56.761Z,100724.31
2022-09-23T13:16:30.051Z,100732.28
2022-09-23T13:19:01.244Z,100725.19
2022-09-23T13:21:44.698Z,100727.78
2022-09-23T13:24:31.527Z,100725.25
2022-09-23T13:27:02.065Z,100728.09
2022-09-23T13:29:44.338Z,100723.44
2022-09-23T13:32:20.743Z,100726.53
2022-09-23T13:35:07.141Z,100727.13
2022-09-23T13:40:37.140Z,100722.59
2022-09-23T13:43:41.369Z,100723.81
2022-09-23T13:46:14.191Z,100723.22
2022-09-23T13:48:45.656Z,100722.00
2022-09-23T13:51:26.083Z,100732.34
2022-09-23T13:53:59.037Z,100730.16
2022-09-23T13:56:28.959Z,100729.31
2022-09-23T13:59:23.802Z,100719.47
2022-09-23T14:01:50.820Z,100722.84
2022-09-23T14:04:25.786Z,100722.69
2022-09-23T14:06:54.756Z,100719.41
2022-09-23T14:09:27.612Z,100716.38
2022-09-23T14:12:00.509Z,100720.34
2022-09-23T14:14:30.719Z,100718.28
2022-09-23T14:16:59.025Z,100717.16
2022-09-23T14:19:26.632Z,100715.09
2022-09-23T14:21:59.160Z,100720.09
2022-09-23T14:24:37.679Z,100722.56
2022-09-23T14:27:16.390Z,100716.72
2022-09-23T14:29:52.026Z,100718.28
2022-09-23T14:32:23.288Z,100720.88
2022-09-23T14:35:05.264Z,100731.16
2022-09-23T14:37:55.714Z,100725.38
2022-09-23T14:41:15.630Z,100724.81
2022-09-23T14:43:50.261Z,100723.25
2022-09-23T14:46:23.175Z,100721.44
2022-09-23T14:49:17.830Z,100723.25
2022-09-23T14:51:50.960Z,100720.84
2022-09-23T14:54:32.499Z,100723.88
2022-09-23T14:57:00.872Z,100726.00
2022-09-23T14:59:33.791Z,100725.47
2022-09-23T15:02:02.651Z,100716.81
2022-09-23T15:04:31.544Z,100723.28
2022-09-23T15:07:04.169Z,100726.25
2022-09-23T15:09:38.267Z,100723.91
2022-09-23T15:12:16.934Z,100730.44
2022-09-23T15:14:50.869Z,100726.38
2022-09-23T15:17:25.444Z,100721.34
2022-09-23T15:19:59.803Z,100711.84
2022-09-23T15:22:28.383Z,100723.69
2022-09-23T15:25:14.675Z,100734.69
2022-09-23T15:27:41.732Z,100719.72
2022-09-23T15:30:15.207Z,100725.19
2022-09-23T15:35:51.022Z,100725.75
2022-09-23T15:38:18.495Z,100731.34
2022-09-23T15:40:46.331Z,100731.66
2022-09-23T15:43:23.205Z,100737.19
2022-09-23T15:45:57.298Z,100740.09
2022-09-23T15:48:39.530Z,100742.22
2022-09-23T15:51:10.018Z,100746.91
2022-09-23T15:53:38.296Z,100752.47
2022-09-23T15:56:06.345Z,100755.44
2022-09-23T15:58:33.721Z,100763.56
2022-09-23T16:01:01.175Z,100761.22
2022-09-23T16:03:31.100Z,100760.44
2022-09-23T16:06:02.589Z,100768.63
2022-09-23T16:08:32.374Z,100756.44
2022-09-23T16:11:00.032Z,100759.22
2022-09-23T16:13:27.163Z,100767.31
2022-09-23T16:15:54.611Z,100759.53
2022-09-23T16:18:22.232Z,100759.75
2022-09-23T16:20:50.365Z,100756.22
2022-09-23T16:23:38.955Z,100753.69
2022-09-23T16:26:24.905Z,100759.19
2022-09-23T16:28:54.708Z,100754.03
2022-09-23T16:31:29.739Z,100763.06
2022-09-23T16:33:58.205Z,100771.19
2022-09-23T16:36:29.009Z,100771.34
2022-09-23T16:38:56.212Z,100767.88
2022-09-23T16:41:24.764Z,100767.22
2022-09-23T16:43:53.020Z,100769.09
2022-09-23T16:46:20.887Z,100777.22
2022-09-23T16:48:52.347Z,100773.78
2022-09-23T16:51:23.867Z,100775.50
2022-09-23T16:53:53.084Z,100776.34
2022-09-23T16:56:27.942Z,100780.75
2022-09-23T16:58:56.855Z,100792.34
2022-09-23T17:01:45.775Z,100784.44
2022-09-23T17:04:16.152Z,100783.63
2022-09-23T17:06:44.330Z,100786.38
2022-09-23T17:09:11.498Z,100792.72
2022-09-23T17:11:38.763Z,100791.13
2022-09-23T17:14:05.914Z,100790.31
2022-09-23T17:16:35.069Z,100790.44
2022-09-23T17:19:11.605Z,100799.28
2022-09-23T17:24:34.814Z,100803.03
2022-09-23T17:27:02.230Z,100805.09
2022-09-23T17:29:30.041Z,100802.50
2022-09-23T17:31:57.147Z,100798.25
2022-09-23T17:34:25.524Z,100802.75
2022-09-23T17:36:52.675Z,100814.28
2022-09-23T17:39:20.722Z,100808.22
2022-09-23T17:41:49.237Z,100808.34
2022-09-23T17:44:17.942Z,100806.81
2022-09-23T17:46:44.964Z,100801.56
2022-09-23T17:49:15.616Z,100806.97
2022-09-23T17:51:42.898Z,100804.41
2022-09-23T17:54:11.119Z,100807.94
2022-09-23T17:56:38.580Z,100807.13
2022-09-23T17:59:06.532Z,100805.44
2022-09-23T18:01:37.978Z,100801.06
2022-09-23T18:04:05.875Z,100808.41
2022-09-23T18:06:39.218Z,100810.28
2022-09-23T18:09:15.122Z,100804.19
2022-09-23T18:11:44.724Z,100799.94
2022-09-23T18:14:18.630Z,100809.78
2022-09-23T18:16:50.081Z,100801.09
2022-09-23T18:19:19.625Z,100807.44
2022-09-23T18:21:50.733Z,100798.63
2022-09-23T18:24:31.891Z,100798.88
2022-09-23T18:27:02.328Z,100803.44
2022-09-23T18:29:29.906Z,100806.25
2022-09-23T18:31:57.596Z,100804.66
2022-09-23T18:34:25.353Z,100801.25
2022-09-23T18:36:54.308Z,100805.75
2022-09-23T18:39:21.304Z,100802.28
2022-09-23T18:41:49.740Z,100803.34
2022-09-23T18:44:17.104Z,100799.88
2022-09-23T18:46:44.910Z,100806.97
2022-09-23T18:49:30.903Z,100803.44
2022-09-23T18:51:58.383Z,100805.19
2022-09-23T18:54:29.035Z,100796.41
2022-09-23T18:56:57.326Z,100798.28
2022-09-23T18:59:28.062Z,100801.97
2022-09-23T19:01:57.613Z,100808.25
2022-09-23T19:04:26.720Z,100796.88
2022-09-23T19:06:56.619Z,100806.78
2022-09-23T19:09:24.151Z,100808.56
2022-09-23T19:11:53.418Z,100805.00
2022-09-23T19:14:24.096Z,100799.78
2022-09-23T19:16:51.708Z,100794.41
2022-09-23T19:19:20.975Z,100798.00
2022-09-23T19:21:48.093Z,100797.13
2022-09-23T19:24:20.601Z,100792.78
2022-09-23T19:26:48.785Z,100791.00
2022-09-23T19:29:19.729Z,100792.78
2022-09-23T19:31:47.875Z,100790.13
2022-09-23T19:34:17.747Z,100800.81
2022-09-23T19:36:47.194Z,100801.78
2022-09-23T19:39:23.216Z,100798.25
2022-09-23T19:41:52.425Z,100793.03
2022-09-23T19:44:20.277Z,100795.75
2022-09-23T19:46:53.466Z,100802.91
2022-09-23T19:49:24.706Z,100803.91
2022-09-23T19:51:53.036Z,100804.03
2022-09-23T19:54:20.956Z,100802.34
2022-09-23T19:56:49.710Z,100804.16
2022-09-23T19:59:18.988Z,100801.69
2022-09-23T20:01:47.962Z,100808.75
2022-09-23T20:04:17.252Z,100808.00
2022-09-23T20:06:47.746Z,100801.03
2022-09-23T20:09:15.135Z,100807.34
2022-09-23T20:11:43.051Z,100807.50
2022-09-23T20:14:10.551Z,100810.22
2022-09-23T20:16:38.180Z,100815.72
2022-09-23T20:19:05.957Z,100814.97
2022-09-23T20:21:34.304Z,100814.19
2022-09-23T20:24:01.998Z,100814.28
2022-09-23T20:26:47.802Z,100814.53
2022-09-23T20:29:15.125Z,100815.59
2022-09-23T20:31:42.605Z,100811.34
2022-09-23T20:34:10.714Z,100818.56
2022-09-23T20:36:39.663Z,100817.00
2022-09-23T20:39:07.316Z,100817.09
2022-09-23T20:41:37.705Z,100815.47
2022-09-23T20:44:09.538Z,100814.66
2022-09-23T20:46:36.937Z,100803.22
2022-09-23T20:49:04.617Z,100809.38
2022-09-23T20:51:35.093Z,100807.72
2022-09-23T20:54:02.499Z,100807.66
2022-09-23T20:56:29.621Z,100804.97
2022-09-23T20:59:01.390Z,100804.78
2022-09-23T21:01:29.372Z,100807.41
2022-09-23T21:03:56.367Z,100799.44
2022-09-23T21:06:26.493Z,100796.72
2022-09-23T21:08:55.043Z,100798.44
2022-09-23T21:14:18.616Z,100799.22
2022-09-23T21:16:46.111Z,100798.28
2022-09-23T21:19:13.449Z,100796.56
2022-09-23T21:21:40.382Z,100795.69
2022-09-23T21:24:40.126Z,100794.81
2022-09-23T21:26:57.323Z,100793.19
2022-09-23T21:29:24.563Z,100791.63
2022-09-23T21:31:51.598Z,100797.94
2022-09-23T21:34:19.498Z,100800.72
2022-09-23T21:36:48.202Z,100800.91
2022-09-23T21:39:15.457Z,100804.50
2022-09-23T21:41:42.527Z,100806.38
2022-09-23T21:44:09.901Z,100799.50
2022-09-23T21:46:37.302Z,100801.41
2022-09-23T21:49:05.128Z,100810.38
2022-09-23T21:51:41.372Z,100802.69
2022-09-23T21:54:14.811Z,100796.66
2022-09-23T21:56:43.492Z,100803.88
2022-09-23T21:59:10.920Z,100796.97
2022-09-23T22:01:41.542Z,100797.88
2022-09-23T22:04:17.765Z,100796.16
2022-09-23T22:06:45.921Z,100798.72
2022-09-23T22:09:16.947Z,100806.66
2022-09-23T22:12:03.060Z,100795.34
2022-09-23T22:14:30.768Z,100796.41
2022-09-23T22:17:02.828Z,100792.91
2022-09-23T22:19:35.859Z,100796.41
2022-09-23T22:22:08.091Z,100791.16
2022-09-23T22:24:35.060Z,100786.69
2022-09-23T22:27:02.002Z,100792.94
2022-09-23T22:29:47.939Z,100792.00
2022-09-23T22:32:33.575Z,100789.31
2022-09-23T22:35:00.929Z,100790.25
2022-09-23T22:37:34.323Z,100795.47
2022-09-23T22:40:06.968Z,100791.97
2022-09-23T22:42:36.073Z,100797.22
2022-09-23T22:45:06.002Z,100796.28
2022-09-23T22:47:40.807Z,100793.63
2022-09-23T22:50:09.241Z,100800.69
2022-09-23T22:52:42.166Z,100796.28
2022-09-23T22:55:11.373Z,100787.47
2022-09-23T22:57:38.401Z,100788.31
2022-09-23T23:00:07.369Z,100786.66
2022-09-23T23:02:34.662Z,100785.84
2022-09-23T23:05:02.319Z,100792.94
2022-09-23T23:07:29.470Z,100793.78
2022-09-23T23:09:56.687Z,100792.00
2022-09-23T23:12:24.297Z,100788.50
2022-09-23T23:14:53.122Z,100778.84
2022-09-23T23:17:20.277Z,100780.53
2022-09-23T23:19:47.856Z,100788.53
2022-09-23T23:22:14.921Z,100785.88
2022-09-23T23:24:43.053Z,100784.16
2022-09-23T23:27:10.101Z,100783.22
2022-09-23T23:29:38.154Z,100776.16
2022-09-23T23:32:06.095Z,100781.50
2022-09-23T23:34:33.062Z,100777.94
2022-09-23T23:37:00.022Z,100779.75
2022-09-23T23:39:27.844Z,100776.16
2022-09-23T23:41:56.090Z,100769.09
2022-09-23T23:44:24.962Z,100771.72
2022-09-23T23:46:53.325Z,100769.06
2022-09-23T23:49:21.594Z,100770.94
2022-09-23T23:51:48.722Z,100765.59
2022-09-23T23:54:15.982Z,100767.47
2022-09-23T23:56:43.592Z,100765.88
2022-09-23T23:59:11.173Z,100763.56
